sensor_id;sensor_type;location;lat;lon;timestamp;P1;durP1;ratioP1;P2;durP2;ratioP2
21661;SDS011;10992;48.170;8.596;2023-01-08T00:01:13;28.73;;;18.50;;
21661;SDS011;10992;48.170;8.596;2023-01-08T00:03:40;27.67;;;18.70;;
21661;SDS011;10992;48.170;8.596;2023-01-08T00:06:10;26.23;;;18.67;;
21661;SDS011;10992;48.170;8.596;2023-01-08T00:08:38;24.33;;;18.20;;
21661;SDS011;10992;48.170;8.596;2023-01-08T00:11:06;25.60;;;17.60;;
21661;SDS011;10992;48.170;8.596;2023-01-08T00:13:33;27.25;;;18.60;;
21661;SDS011;10992;48.170;8.596;2023-01-08T00:16:04;25.63;;;17.83;;
21661;SDS011;10992;48.170;8.596;2023-01-08T00:18:33;27.27;;;17.98;;
21661;SDS011;10992;48.170;8.596;2023-01-08T00:21:00;24.85;;;18.70;;
21661;SDS011;10992;48.170;8.596;2023-01-08T00:23:28;26.80;;;17.75;;
21661;SDS011;10992;48.170;8.596;2023-01-08T00:25:55;27.35;;;19.00;;
21661;SDS011;10992;48.170;8.596;2023-01-08T00:28:22;26.92;;;19.08;;
21661;SDS011;10992;48.170;8.596;2023-01-08T00:30:48;26.80;;;18.02;;
21661;SDS011;10992;48.170;8.596;2023-01-08T00:33:15;23.63;;;18.13;;
21661;SDS011;10992;48.170;8.596;2023-01-08T00:35:43;27.25;;;18.90;;
21661;SDS011;10992;48.170;8.596;2023-01-08T00:38:09;28.40;;;18.77;;
21661;SDS011;10992;48.170;8.596;2023-01-08T00:40:37;26.50;;;17.58;;
21661;SDS011;10992;48.170;8.596;2023-01-08T00:43:05;26.98;;;19.02;;
21661;SDS011;10992;48.170;8.596;2023-01-08T00:45:33;27.70;;;19.05;;
21661;SDS011;10992;48.170;8.596;2023-01-08T00:48:00;26.13;;;19.25;;
21661;SDS011;10992;48.170;8.596;2023-01-08T00:50:27;25.00;;;19.20;;
21661;SDS011;10992;48.170;8.596;2023-01-08T00:52:54;28.08;;;19.35;;
21661;SDS011;10992;48.170;8.596;2023-01-08T00:55:21;27.08;;;18.85;;
21661;SDS011;10992;48.170;8.596;2023-01-08T00:57:48;28.98;;;19.52;;
21661;SDS011;10992;48.170;8.596;2023-01-08T01:00:15;28.63;;;19.00;;
21661;SDS011;10992;48.170;8.596;2023-01-08T01:02:42;27.35;;;19.40;;
21661;SDS011;10992;48.170;8.596;2023-01-08T01:05:10;25.60;;;18.50;;
21661;SDS011;10992;48.170;8.596;2023-01-08T01:07:40;29.00;;;19.05;;
21661;SDS011;10992;48.170;8.596;2023-01-08T01:10:09;23.83;;;17.48;;
21661;SDS011;10992;48.170;8.596;2023-01-08T01:12:37;28.70;;;18.00;;
21661;SDS011;10992;48.170;8.596;2023-01-08T01:15:06;29.75;;;19.10;;
21661;SDS011;10992;48.170;8.596;2023-01-08T01:17:40;23.80;;;17.73;;
21661;SDS011;10992;48.170;8.596;2023-01-08T01:20:09;25.70;;;19.00;;
21661;SDS011;10992;48.170;8.596;2023-01-08T01:22:38;22.60;;;16.40;;
21661;SDS011;10992;48.170;8.596;2023-01-08T01:25:05;26.67;;;18.52;;
21661;SDS011;10992;48.170;8.596;2023-01-08T01:27:33;24.48;;;17.98;;
21661;SDS011;10992;48.170;8.596;2023-01-08T01:29:59;24.83;;;17.33;;
21661;SDS011;10992;48.170;8.596;2023-01-08T01:32:26;27.38;;;18.77;;
21661;SDS011;10992;48.170;8.596;2023-01-08T01:34:53;26.92;;;18.65;;
21661;SDS011;10992;48.170;8.596;2023-01-08T01:37:20;26.02;;;18.52;;
21661;SDS011;10992;48.170;8.596;2023-01-08T01:39:47;27.15;;;19.23;;
21661;SDS011;10992;48.170;8.596;2023-01-08T01:42:15;26.90;;;18.30;;
21661;SDS011;10992;48.170;8.596;2023-01-08T01:45:05;27.40;;;18.92;;
21661;SDS011;10992;48.170;8.596;2023-01-08T01:47:39;24.52;;;18.63;;
21661;SDS011;10992;48.170;8.596;2023-01-08T01:50:11;25.85;;;18.67;;
21661;SDS011;10992;48.170;8.596;2023-01-08T01:52:46;26.45;;;19.08;;
21661;SDS011;10992;48.170;8.596;2023-01-08T01:55:21;25.73;;;19.48;;
21661;SDS011;10992;48.170;8.596;2023-01-08T01:57:49;29.52;;;18.52;;
21661;SDS011;10992;48.170;8.596;2023-01-08T02:00:20;29.50;;;19.70;;
21661;SDS011;10992;48.170;8.596;2023-01-08T02:02:49;28.33;;;17.90;;
21661;SDS011;10992;48.170;8.596;2023-01-08T02:05:17;27.95;;;19.38;;
21661;SDS011;10992;48.170;8.596;2023-01-08T02:07:55;25.27;;;18.45;;
21661;SDS011;10992;48.170;8.596;2023-01-08T02:10:29;26.67;;;18.88;;
21661;SDS011;10992;48.170;8.596;2023-01-08T02:13:03;29.52;;;19.30;;
21661;SDS011;10992;48.170;8.596;2023-01-08T02:15:40;27.65;;;18.65;;
21661;SDS011;10992;48.170;8.596;2023-01-08T02:18:19;24.75;;;18.45;;
21661;SDS011;10992;48.170;8.596;2023-01-08T02:21:07;24.83;;;18.25;;
21661;SDS011;10992;48.170;8.596;2023-01-08T02:23:45;26.52;;;17.75;;
21661;SDS011;10992;48.170;8.596;2023-01-08T02:26:31;23.95;;;17.33;;
21661;SDS011;10992;48.170;8.596;2023-01-08T02:31:34;23.70;;;17.75;;
21661;SDS011;10992;48.170;8.596;2023-01-08T02:34:04;23.55;;;16.98;;
21661;SDS011;10992;48.170;8.596;2023-01-08T02:36:33;24.90;;;17.70;;
21661;SDS011;10992;48.170;8.596;2023-01-08T02:39:10;23.77;;;16.60;;
21661;SDS011;10992;48.170;8.596;2023-01-08T02:44:54;27.20;;;18.73;;
21661;SDS011;10992;48.170;8.596;2023-01-08T02:47:38;23.58;;;17.20;;
21661;SDS011;10992;48.170;8.596;2023-01-08T02:50:12;24.58;;;17.17;;
21661;SDS011;10992;48.170;8.596;2023-01-08T02:52:49;24.05;;;17.17;;
21661;SDS011;10992;48.170;8.596;2023-01-08T02:55:29;26.05;;;18.23;;
21661;SDS011;10992;48.170;8.596;2023-01-08T02:57:59;22.65;;;17.08;;
21661;SDS011;10992;48.170;8.596;2023-01-08T03:00:27;27.95;;;17.45;;
21661;SDS011;10992;48.170;8.596;2023-01-08T03:03:01;22.70;;;17.50;;
21661;SDS011;10992;48.170;8.596;2023-01-08T03:05:35;22.15;;;16.20;;
21661;SDS011;10992;48.170;8.596;2023-01-08T03:08:04;22.65;;;16.55;;
21661;SDS011;10992;48.170;8.596;2023-01-08T03:10:32;24.17;;;16.65;;
21661;SDS011;10992;48.170;8.596;2023-01-08T03:13:03;24.95;;;16.77;;
21661;SDS011;10992;48.170;8.596;2023-01-08T03:15:39;24.42;;;17.13;;
21661;SDS011;10992;48.170;8.596;2023-01-08T03:18:12;24.92;;;17.17;;
21661;SDS011;10992;48.170;8.596;2023-01-08T03:20:44;24.92;;;15.95;;
21661;SDS011;10992;48.170;8.596;2023-01-08T03:23:12;24.58;;;17.25;;
21661;SDS011;10992;48.170;8.596;2023-01-08T03:25:42;22.50;;;16.77;;
21661;SDS011;10992;48.170;8.596;2023-01-08T03:28:17;22.40;;;16.63;;
21661;SDS011;10992;48.170;8.596;2023-01-08T03:30:48;26.25;;;16.65;;
21661;SDS011;10992;48.170;8.596;2023-01-08T03:33:17;21.00;;;15.07;;
21661;SDS011;10992;48.170;8.596;2023-01-08T03:35:46;21.40;;;16.10;;
21661;SDS011;10992;48.170;8.596;2023-01-08T03:38:21;21.67;;;16.38;;
21661;SDS011;10992;48.170;8.596;2023-01-08T03:40:55;23.80;;;16.42;;
21661;SDS011;10992;48.170;8.596;2023-01-08T03:43:24;22.92;;;17.38;;
21661;SDS011;10992;48.170;8.596;2023-01-08T03:45:56;22.77;;;16.48;;
21661;SDS011;10992;48.170;8.596;2023-01-08T03:48:27;19.02;;;14.93;;
21661;SDS011;10992;48.170;8.596;2023-01-08T03:50:56;20.17;;;14.95;;
21661;SDS011;10992;48.170;8.596;2023-01-08T03:53:23;21.33;;;15.40;;
21661;SDS011;10992;48.170;8.596;2023-01-08T03:55:50;24.63;;;15.95;;
21661;SDS011;10992;48.170;8.596;2023-01-08T03:58:17;19.90;;;15.00;;
21661;SDS011;10992;48.170;8.596;2023-01-08T04:00:44;22.02;;;15.75;;
21661;SDS011;10992;48.170;8.596;2023-01-08T04:03:11;20.92;;;14.68;;
21661;SDS011;10992;48.170;8.596;2023-01-08T04:05:38;18.23;;;14.18;;
21661;SDS011;10992;48.170;8.596;2023-01-08T04:08:04;17.48;;;12.98;;
21661;SDS011;10992;48.170;8.596;2023-01-08T04:10:31;18.55;;;14.32;;
21661;SDS011;10992;48.170;8.596;2023-01-08T04:12:58;18.52;;;13.18;;
21661;SDS011;10992;48.170;8.596;2023-01-08T04:15:25;16.73;;;12.57;;
21661;SDS011;10992;48.170;8.596;2023-01-08T04:17:52;17.92;;;12.32;;
21661;SDS011;10992;48.170;8.596;2023-01-08T04:20:19;17.45;;;12.57;;
21661;SDS011;10992;48.170;8.596;2023-01-08T04:22:46;15.68;;;12.20;;
21661;SDS011;10992;48.170;8.596;2023-01-08T04:25:13;18.15;;;11.80;;
21661;SDS011;10992;48.170;8.596;2023-01-08T04:27:40;16.42;;;12.43;;
21661;SDS011;10992;48.170;8.596;2023-01-08T04:30:07;15.30;;;11.48;;
21661;SDS011;10992;48.170;8.596;2023-01-08T04:32:34;16.42;;;10.85;;
21661;SDS011;10992;48.170;8.596;2023-01-08T04:35:01;12.85;;;9.88;;
21661;SDS011;10992;48.170;8.596;2023-01-08T04:37:28;11.57;;;8.32;;
21661;SDS011;10992;48.170;8.596;2023-01-08T04:39:54;9.15;;;7.10;;
21661;SDS011;10992;48.170;8.596;2023-01-08T04:42:21;10.15;;;6.63;;
21661;SDS011;10992;48.170;8.596;2023-01-08T04:44:48;8.43;;;5.38;;
21661;SDS011;10992;48.170;8.596;2023-01-08T04:47:15;5.00;;;4.40;;
21661;SDS011;10992;48.170;8.596;2023-01-08T04:49:42;5.13;;;3.58;;
21661;SDS011;10992;48.170;8.596;2023-01-08T04:52:09;5.57;;;4.13;;
21661;SDS011;10992;48.170;8.596;2023-01-08T04:54:36;5.60;;;3.47;;
21661;SDS011;10992;48.170;8.596;2023-01-08T04:57:03;5.18;;;3.45;;
21661;SDS011;10992;48.170;8.596;2023-01-08T04:59:29;3.33;;;2.83;;
21661;SDS011;10992;48.170;8.596;2023-01-08T05:01:56;4.45;;;3.00;;
21661;SDS011;10992;48.170;8.596;2023-01-08T05:04:24;3.88;;;2.97;;
21661;SDS011;10992;48.170;8.596;2023-01-08T05:06:51;3.15;;;2.63;;
21661;SDS011;10992;48.170;8.596;2023-01-08T05:09:18;12.20;;;8.02;;
21661;SDS011;10992;48.170;8.596;2023-01-08T05:11:45;12.05;;;9.05;;
21661;SDS011;10992;48.170;8.596;2023-01-08T05:14:12;10.80;;;8.73;;
21661;SDS011;10992;48.170;8.596;2023-01-08T05:16:39;10.77;;;7.65;;
21661;SDS011;10992;48.170;8.596;2023-01-08T05:19:06;10.45;;;6.47;;
21661;SDS011;10992;48.170;8.596;2023-01-08T05:21:36;6.28;;;3.88;;
21661;SDS011;10992;48.170;8.596;2023-01-08T05:24:03;2.42;;;2.20;;
21661;SDS011;10992;48.170;8.596;2023-01-08T05:26:30;3.88;;;2.05;;
21661;SDS011;10992;48.170;8.596;2023-01-08T05:28:57;1.88;;;1.55;;
21661;SDS011;10992;48.170;8.596;2023-01-08T05:31:24;1.38;;;1.27;;
21661;SDS011;10992;48.170;8.596;2023-01-08T05:33:51;1.50;;;1.17;;
21661;SDS011;10992;48.170;8.596;2023-01-08T05:36:18;2.55;;;1.42;;
21661;SDS011;10992;48.170;8.596;2023-01-08T05:38:44;1.45;;;1.00;;
21661;SDS011;10992;48.170;8.596;2023-01-08T05:41:11;3.78;;;3.20;;
21661;SDS011;10992;48.170;8.596;2023-01-08T05:43:38;8.43;;;6.57;;
21661;SDS011;10992;48.170;8.596;2023-01-08T05:46:05;7.85;;;5.70;;
21661;SDS011;10992;48.170;8.596;2023-01-08T05:48:33;5.45;;;4.50;;
21661;SDS011;10992;48.170;8.596;2023-01-08T05:51:01;5.82;;;3.90;;
21661;SDS011;10992;48.170;8.596;2023-01-08T05:53:28;2.08;;;1.60;;
21661;SDS011;10992;48.170;8.596;2023-01-08T05:55:59;1.42;;;1.25;;
21661;SDS011;10992;48.170;8.596;2023-01-08T05:58:27;1.80;;;1.10;;
21661;SDS011;10992;48.170;8.596;2023-01-08T06:00:59;1.63;;;0.95;;
21661;SDS011;10992;48.170;8.596;2023-01-08T06:03:28;0.77;;;0.70;;
21661;SDS011;10992;48.170;8.596;2023-01-08T06:05:59;1.42;;;0.95;;
21661;SDS011;10992;48.170;8.596;2023-01-08T06:08:27;0.80;;;0.80;;
21661;SDS011;10992;48.170;8.596;2023-01-08T06:11:02;1.08;;;0.75;;
21661;SDS011;10992;48.170;8.596;2023-01-08T06:13:32;1.48;;;0.90;;
21661;SDS011;10992;48.170;8.596;2023-01-08T06:16:00;1.00;;;0.90;;
21661;SDS011;10992;48.170;8.596;2023-01-08T06:18:27;0.80;;;0.80;;
21661;SDS011;10992;48.170;8.596;2023-01-08T06:20:55;1.75;;;1.20;;
21661;SDS011;10992;48.170;8.596;2023-01-08T06:23:22;0.77;;;0.77;;
21661;SDS011;10992;48.170;8.596;2023-01-08T06:25:53;3.35;;;0.90;;
21661;SDS011;10992;48.170;8.596;2023-01-08T06:28:21;1.08;;;0.90;;
21661;SDS011;10992;48.170;8.596;2023-01-08T06:30:48;1.15;;;1.02;;
21661;SDS011;10992;48.170;8.596;2023-01-08T06:33:15;2.70;;;1.20;;
21661;SDS011;10992;48.170;8.596;2023-01-08T06:35:46;1.35;;;1.10;;
21661;SDS011;10992;48.170;8.596;2023-01-08T06:38:12;2.28;;;1.20;;
21661;SDS011;10992;48.170;8.596;2023-01-08T06:40:39;3.30;;;1.20;;
21661;SDS011;10992;48.170;8.596;2023-01-08T06:43:06;1.42;;;1.10;;
21661;SDS011;10992;48.170;8.596;2023-01-08T06:45:33;2.15;;;1.17;;
21661;SDS011;10992;48.170;8.596;2023-01-08T06:48:03;1.30;;;1.20;;
21661;SDS011;10992;48.170;8.596;2023-01-08T06:50:32;1.52;;;1.20;;
21661;SDS011;10992;48.170;8.596;2023-01-08T06:52:59;1.63;;;1.13;;
21661;SDS011;10992;48.170;8.596;2023-01-08T06:55:26;2.90;;;1.35;;
21661;SDS011;10992;48.170;8.596;2023-01-08T06:57:53;2.17;;;1.35;;
21661;SDS011;10992;48.170;8.596;2023-01-08T07:00:24;2.08;;;1.17;;
21661;SDS011;10992;48.170;8.596;2023-01-08T07:02:52;1.30;;;1.20;;
21661;SDS011;10992;48.170;8.596;2023-01-08T07:05:19;1.88;;;1.30;;
21661;SDS011;10992;48.170;8.596;2023-01-08T07:07:47;2.22;;;1.35;;
21661;SDS011;10992;48.170;8.596;2023-01-08T07:10:14;1.73;;;1.27;;
21661;SDS011;10992;48.170;8.596;2023-01-08T07:12:43;2.55;;;1.70;;
21661;SDS011;10992;48.170;8.596;2023-01-08T07:15:10;2.90;;;1.45;;
21661;SDS011;10992;48.170;8.596;2023-01-08T07:17:37;3.03;;;1.77;;
21661;SDS011;10992;48.170;8.596;2023-01-08T07:20:04;2.28;;;1.75;;
21661;SDS011;10992;48.170;8.596;2023-01-08T07:22:31;2.10;;;1.55;;
21661;SDS011;10992;48.170;8.596;2023-01-08T07:24:58;2.47;;;1.60;;
21661;SDS011;10992;48.170;8.596;2023-01-08T07:27:25;1.98;;;1.58;;
21661;SDS011;10992;48.170;8.596;2023-01-08T07:29:52;2.65;;;1.42;;
21661;SDS011;10992;48.170;8.596;2023-01-08T07:32:21;4.20;;;1.95;;
21661;SDS011;10992;48.170;8.596;2023-01-08T07:34:48;1.95;;;1.60;;
21661;SDS011;10992;48.170;8.596;2023-01-08T07:37:18;3.78;;;1.70;;
21661;SDS011;10992;48.170;8.596;2023-01-08T07:39:44;2.75;;;1.85;;
21661;SDS011;10992;48.170;8.596;2023-01-08T07:42:11;2.13;;;1.73;;
21661;SDS011;10992;48.170;8.596;2023-01-08T07:44:38;2.35;;;1.70;;
21661;SDS011;10992;48.170;8.596;2023-01-08T07:47:05;1.92;;;1.73;;
21661;SDS011;10992;48.170;8.596;2023-01-08T07:49:32;3.40;;;2.25;;
21661;SDS011;10992;48.170;8.596;2023-01-08T07:51:59;4.18;;;2.28;;
21661;SDS011;10992;48.170;8.596;2023-01-08T07:54:26;2.85;;;2.40;;
21661;SDS011;10992;48.170;8.596;2023-01-08T07:56:53;4.63;;;2.20;;
21661;SDS011;10992;48.170;8.596;2023-01-08T07:59:20;2.72;;;2.28;;
21661;SDS011;10992;48.170;8.596;2023-01-08T08:01:47;2.65;;;2.42;;
21661;SDS011;10992;48.170;8.596;2023-01-08T08:04:14;4.03;;;2.97;;
21661;SDS011;10992;48.170;8.596;2023-01-08T08:06:41;2.95;;;2.60;;
21661;SDS011;10992;48.170;8.596;2023-01-08T08:09:08;4.35;;;3.55;;
21661;SDS011;10992;48.170;8.596;2023-01-08T08:11:35;6.55;;;4.70;;
21661;SDS011;10992;48.170;8.596;2023-01-08T08:14:04;6.72;;;4.63;;
21661;SDS011;10992;48.170;8.596;2023-01-08T08:16:30;5.75;;;4.53;;
21661;SDS011;10992;48.170;8.596;2023-01-08T08:18:58;8.75;;;4.85;;
21661;SDS011;10992;48.170;8.596;2023-01-08T08:21:25;9.00;;;4.93;;
21661;SDS011;10992;48.170;8.596;2023-01-08T08:23:54;7.60;;;5.05;;
21661;SDS011;10992;48.170;8.596;2023-01-08T08:26:21;8.70;;;5.15;;
21661;SDS011;10992;48.170;8.596;2023-01-08T08:28:48;4.93;;;4.43;;
21661;SDS011;10992;48.170;8.596;2023-01-08T08:31:15;6.57;;;4.90;;
21661;SDS011;10992;48.170;8.596;2023-01-08T08:33:42;5.65;;;4.63;;
21661;SDS011;10992;48.170;8.596;2023-01-08T08:36:09;5.97;;;4.68;;
21661;SDS011;10992;48.170;8.596;2023-01-08T08:38:36;7.72;;;5.35;;
21661;SDS011;10992;48.170;8.596;2023-01-08T08:41:05;7.53;;;5.60;;
21661;SDS011;10992;48.170;8.596;2023-01-08T08:43:32;7.70;;;5.97;;
21661;SDS011;10992;48.170;8.596;2023-01-08T08:45:59;9.95;;;6.65;;
21661;SDS011;10992;48.170;8.596;2023-01-08T08:48:28;7.63;;;6.00;;
21661;SDS011;10992;48.170;8.596;2023-01-08T08:50:55;8.57;;;6.03;;
21661;SDS011;10992;48.170;8.596;2023-01-08T08:53:21;8.35;;;6.15;;
21661;SDS011;10992;48.170;8.596;2023-01-08T08:55:48;8.32;;;6.10;;
21661;SDS011;10992;48.170;8.596;2023-01-08T08:58:15;8.57;;;5.75;;
21661;SDS011;10992;48.170;8.596;2023-01-08T09:00:42;7.90;;;6.70;;
21661;SDS011;10992;48.170;8.596;2023-01-08T09:03:11;9.07;;;6.18;;
21661;SDS011;10992;48.170;8.596;2023-01-08T09:05:39;8.70;;;6.00;;
21661;SDS011;10992;48.170;8.596;2023-01-08T09:08:08;8.90;;;6.07;;
21661;SDS011;10992;48.170;8.596;2023-01-08T09:10:36;6.82;;;5.45;;
21661;SDS011;10992;48.170;8.596;2023-01-08T09:13:04;6.20;;;5.45;;
21661;SDS011;10992;48.170;8.596;2023-01-08T09:15:31;6.97;;;5.15;;
21661;SDS011;10992;48.170;8.596;2023-01-08T09:17:57;6.18;;;4.82;;
21661;SDS011;10992;48.170;8.596;2023-01-08T09:20:27;7.15;;;4.50;;
21661;SDS011;10992;48.170;8.596;2023-01-08T09:22:56;5.05;;;3.80;;
21661;SDS011;10992;48.170;8.596;2023-01-08T09:25:24;5.55;;;4.28;;
21661;SDS011;10992;48.170;8.596;2023-01-08T09:27:58;6.68;;;3.88;;
21661;SDS011;10992;48.170;8.596;2023-01-08T09:30:27;4.53;;;3.50;;
21661;SDS011;10992;48.170;8.596;2023-01-08T09:32:58;6.47;;;3.70;;
21661;SDS011;10992;48.170;8.596;2023-01-08T09:35:28;4.70;;;3.50;;
21661;SDS011;10992;48.170;8.596;2023-01-08T09:37:56;4.88;;;3.72;;
21661;SDS011;10992;48.170;8.596;2023-01-08T09:40:27;5.22;;;3.65;;
21661;SDS011;10992;48.170;8.596;2023-01-08T09:43:00;7.40;;;3.60;;
21661;SDS011;10992;48.170;8.596;2023-01-08T09:45:32;4.35;;;3.13;;
21661;SDS011;10992;48.170;8.596;2023-01-08T09:48:03;3.47;;;2.53;;
21661;SDS011;10992;48.170;8.596;2023-01-08T09:50:33;4.18;;;2.80;;
21661;SDS011;10992;48.170;8.596;2023-01-08T09:53:00;2.78;;;2.50;;
21661;SDS011;10992;48.170;8.596;2023-01-08T09:55:28;3.53;;;3.08;;
21661;SDS011;10992;48.170;8.596;2023-01-08T09:57:58;4.75;;;2.65;;
21661;SDS011;10992;48.170;8.596;2023-01-08T10:00:29;5.55;;;2.38;;
21661;SDS011;10992;48.170;8.596;2023-01-08T10:02:58;4.65;;;2.53;;
21661;SDS011;10992;48.170;8.596;2023-01-08T10:05:26;2.53;;;2.15;;
21661;SDS011;10992;48.170;8.596;2023-01-08T10:07:54;4.30;;;3.22;;
21661;SDS011;10992;48.170;8.596;2023-01-08T10:10:22;5.45;;;3.00;;
21661;SDS011;10992;48.170;8.596;2023-01-08T10:12:52;4.60;;;3.22;;
21661;SDS011;10992;48.170;8.596;2023-01-08T10:15:19;4.53;;;3.50;;
21661;SDS011;10992;48.170;8.596;2023-01-08T10:17:50;5.95;;;4.07;;
21661;SDS011;10992;48.170;8.596;2023-01-08T10:20:25;4.68;;;3.78;;
21661;SDS011;10992;48.170;8.596;2023-01-08T10:22:52;7.18;;;5.40;;
21661;SDS011;10992;48.170;8.596;2023-01-08T10:25:21;8.57;;;5.50;;
21661;SDS011;10992;48.170;8.596;2023-01-08T10:27:55;7.78;;;4.60;;
21661;SDS011;10992;48.170;8.596;2023-01-08T10:30:32;7.38;;;4.22;;
21661;SDS011;10992;48.170;8.596;2023-01-08T10:33:13;5.57;;;4.40;;
21661;SDS011;10992;48.170;8.596;2023-01-08T10:35:50;5.13;;;4.30;;
21661;SDS011;10992;48.170;8.596;2023-01-08T10:38:23;4.75;;;4.07;;
21661;SDS011;10992;48.170;8.596;2023-01-08T10:40:59;4.82;;;3.90;;
21661;SDS011;10992;48.170;8.596;2023-01-08T10:43:30;5.50;;;3.78;;
21661;SDS011;10992;48.170;8.596;2023-01-08T10:46:12;9.13;;;6.47;;
21661;SDS011;10992;48.170;8.596;2023-01-08T10:48:54;11.75;;;7.38;;
21661;SDS011;10992;48.170;8.596;2023-01-08T10:51:27;6.30;;;4.30;;
21661;SDS011;10992;48.170;8.596;2023-01-08T10:54:00;6.03;;;4.30;;
21661;SDS011;10992;48.170;8.596;2023-01-08T10:56:40;4.53;;;3.85;;
21661;SDS011;10992;48.170;8.596;2023-01-08T10:59:17;4.28;;;3.72;;
21661;SDS011;10992;48.170;8.596;2023-01-08T11:01:46;4.88;;;4.35;;
21661;SDS011;10992;48.170;8.596;2023-01-08T11:04:19;4.25;;;3.58;;
21661;SDS011;10992;48.170;8.596;2023-01-08T11:06:49;4.55;;;3.60;;
21661;SDS011;10992;48.170;8.596;2023-01-08T11:09:21;5.75;;;3.65;;
21661;SDS011;10992;48.170;8.596;2023-01-08T11:11:50;4.72;;;3.63;;
21661;SDS011;10992;48.170;8.596;2023-01-08T11:14:21;4.22;;;3.50;;
21661;SDS011;10992;48.170;8.596;2023-01-08T11:16:52;3.65;;;3.30;;
21661;SDS011;10992;48.170;8.596;2023-01-08T11:19:24;4.75;;;3.15;;
21661;SDS011;10992;48.170;8.596;2023-01-08T11:21:54;4.03;;;3.47;;
21661;SDS011;10992;48.170;8.596;2023-01-08T11:24:31;3.90;;;3.00;;
21661;SDS011;10992;48.170;8.596;2023-01-08T11:27:13;3.85;;;2.60;;
21661;SDS011;10992;48.170;8.596;2023-01-08T11:29:52;2.92;;;2.63;;
21661;SDS011;10992;48.170;8.596;2023-01-08T11:32:51;2.70;;;2.45;;
21661;SDS011;10992;48.170;8.596;2023-01-08T11:35:44;3.50;;;2.63;;
21661;SDS011;10992;48.170;8.596;2023-01-08T11:38:15;4.45;;;2.90;;
21661;SDS011;10992;48.170;8.596;2023-01-08T11:43:27;3.95;;;3.55;;
21661;SDS011;10992;48.170;8.596;2023-01-08T11:54:20;3.08;;;2.45;;
21661;SDS011;10992;48.170;8.596;2023-01-08T12:10:44;4.72;;;2.70;;
21661;SDS011;10992;48.170;8.596;2023-01-08T12:33:03;2.60;;;1.95;;
21661;SDS011;10992;48.170;8.596;2023-01-08T12:35:44;1.95;;;1.75;;
21661;SDS011;10992;48.170;8.596;2023-01-08T12:40:57;3.95;;;3.60;;
21661;SDS011;10992;48.170;8.596;2023-01-08T12:43:38;2.90;;;2.60;;
21661;SDS011;10992;48.170;8.596;2023-01-08T12:46:20;3.63;;;3.00;;
21661;SDS011;10992;48.170;8.596;2023-01-08T12:48:50;2.00;;;1.80;;
21661;SDS011;10992;48.170;8.596;2023-01-08T12:51:23;3.83;;;2.70;;
21661;SDS011;10992;48.170;8.596;2023-01-08T13:05:34;2.60;;;2.40;;
21661;SDS011;10992;48.170;8.596;2023-01-08T13:08:05;2.85;;;1.63;;
21661;SDS011;10992;48.170;8.596;2023-01-08T13:10:48;2.92;;;2.05;;
21661;SDS011;10992;48.170;8.596;2023-01-08T13:13:33;2.67;;;1.80;;
21661;SDS011;10992;48.170;8.596;2023-01-08T13:16:08;3.08;;;2.35;;
21661;SDS011;10992;48.170;8.596;2023-01-08T13:18:56;2.65;;;2.45;;
21661;SDS011;10992;48.170;8.596;2023-01-08T13:24:02;2.65;;;2.45;;
21661;SDS011;10992;48.170;8.596;2023-01-08T13:26:32;3.53;;;2.50;;
21661;SDS011;10992;48.170;8.596;2023-01-08T13:29:20;3.00;;;2.70;;
21661;SDS011;10992;48.170;8.596;2023-01-08T13:32:00;3.13;;;2.70;;
21661;SDS011;10992;48.170;8.596;2023-01-08T13:34:38;4.72;;;2.50;;
21661;SDS011;10992;48.170;8.596;2023-01-08T13:37:07;4.10;;;2.55;;
21661;SDS011;10992;48.170;8.596;2023-01-08T13:39:52;4.38;;;3.38;;
21661;SDS011;10992;48.170;8.596;2023-01-08T13:42:20;3.83;;;2.83;;
21661;SDS011;10992;48.170;8.596;2023-01-08T13:44:57;5.20;;;3.05;;
21661;SDS011;10992;48.170;8.596;2023-01-08T13:47:33;4.25;;;3.10;;
21661;SDS011;10992;48.170;8.596;2023-01-08T13:50:13;3.25;;;2.78;;
21661;SDS011;10992;48.170;8.596;2023-01-08T13:52:46;4.20;;;3.40;;
21661;SDS011;10992;48.170;8.596;2023-01-08T13:57:59;4.55;;;3.47;;
21661;SDS011;10992;48.170;8.596;2023-01-08T14:00:31;3.78;;;2.92;;
21661;SDS011;10992;48.170;8.596;2023-01-08T14:09:02;6.53;;;4.43;;
21661;SDS011;10992;48.170;8.596;2023-01-08T14:11:42;5.05;;;4.20;;
21661;SDS011;10992;48.170;8.596;2023-01-08T14:14:12;7.35;;;4.75;;
21661;SDS011;10992;48.170;8.596;2023-01-08T14:16:42;7.53;;;5.13;;
21661;SDS011;10992;48.170;8.596;2023-01-08T14:19:12;6.13;;;4.13;;
21661;SDS011;10992;48.170;8.596;2023-01-08T14:22:00;3.97;;;3.28;;
21661;SDS011;10992;48.170;8.596;2023-01-08T14:24:27;5.43;;;3.92;;
21661;SDS011;10992;48.170;8.596;2023-01-08T14:26:55;7.28;;;5.10;;
21661;SDS011;10992;48.170;8.596;2023-01-08T14:29:24;9.30;;;5.70;;
21661;SDS011;10992;48.170;8.596;2023-01-08T14:31:53;8.55;;;6.18;;
21661;SDS011;10992;48.170;8.596;2023-01-08T14:34:22;5.03;;;3.90;;
21661;SDS011;10992;48.170;8.596;2023-01-08T14:36:53;5.43;;;3.90;;
21661;SDS011;10992;48.170;8.596;2023-01-08T14:41:58;4.65;;;3.65;;
21661;SDS011;10992;48.170;8.596;2023-01-08T14:44:55;3.78;;;3.22;;
21661;SDS011;10992;48.170;8.596;2023-01-08T14:47:25;4.70;;;4.10;;
21661;SDS011;10992;48.170;8.596;2023-01-08T14:49:57;4.03;;;3.42;;
21661;SDS011;10992;48.170;8.596;2023-01-08T14:52:24;3.88;;;3.38;;
21661;SDS011;10992;48.170;8.596;2023-01-08T14:54:52;5.35;;;4.00;;
21661;SDS011;10992;48.170;8.596;2023-01-08T14:57:25;4.00;;;3.40;;
21661;SDS011;10992;48.170;8.596;2023-01-08T14:59:54;4.82;;;3.60;;
21661;SDS011;10992;48.170;8.596;2023-01-08T15:02:28;6.75;;;4.70;;
21661;SDS011;10992;48.170;8.596;2023-01-08T15:08:02;4.53;;;4.05;;
21661;SDS011;10992;48.170;8.596;2023-01-08T15:11:50;4.43;;;3.70;;
21661;SDS011;10992;48.170;8.596;2023-01-08T15:13:44;5.88;;;4.35;;
21661;SDS011;10992;48.170;8.596;2023-01-08T15:16:25;5.15;;;4.30;;
21661;SDS011;10992;48.170;8.596;2023-01-08T15:19:03;4.50;;;3.72;;
21661;SDS011;10992;48.170;8.596;2023-01-08T15:22:02;4.63;;;3.90;;
21661;SDS011;10992;48.170;8.596;2023-01-08T15:24:33;5.90;;;3.70;;
21661;SDS011;10992;48.170;8.596;2023-01-08T15:27:05;4.25;;;3.45;;
21661;SDS011;10992;48.170;8.596;2023-01-08T15:29:47;4.68;;;3.97;;
21661;SDS011;10992;48.170;8.596;2023-01-08T15:34:45;5.05;;;3.78;;
21661;SDS011;10992;48.170;8.596;2023-01-08T15:37:12;4.75;;;3.80;;
21661;SDS011;10992;48.170;8.596;2023-01-08T15:39:41;5.30;;;3.78;;
21661;SDS011;10992;48.170;8.596;2023-01-08T15:42:21;4.63;;;3.67;;
21661;SDS011;10992;48.170;8.596;2023-01-08T15:45:15;5.82;;;4.93;;
21661;SDS011;10992;48.170;8.596;2023-01-08T15:47:44;5.38;;;4.03;;
21661;SDS011;10992;48.170;8.596;2023-01-08T15:50:11;4.22;;;3.05;;
21661;SDS011;10992;48.170;8.596;2023-01-08T15:52:39;4.43;;;3.90;;
21661;SDS011;10992;48.170;8.596;2023-01-08T15:55:09;4.05;;;3.60;;
21661;SDS011;10992;48.170;8.596;2023-01-08T15:57:42;5.28;;;3.90;;
21661;SDS011;10992;48.170;8.596;2023-01-08T16:00:12;7.20;;;4.28;;
21661;SDS011;10992;48.170;8.596;2023-01-08T16:02:44;11.77;;;6.35;;
21661;SDS011;10992;48.170;8.596;2023-01-08T16:05:13;16.10;;;8.05;;
21661;SDS011;10992;48.170;8.596;2023-01-08T16:07:42;5.05;;;3.92;;
21661;SDS011;10992;48.170;8.596;2023-01-08T16:10:15;27.38;;;10.90;;
21661;SDS011;10992;48.170;8.596;2023-01-08T16:12:43;28.88;;;11.02;;
21661;SDS011;10992;48.170;8.596;2023-01-08T16:15:10;12.32;;;6.80;;
21661;SDS011;10992;48.170;8.596;2023-01-08T16:17:38;11.50;;;5.80;;
21661;SDS011;10992;48.170;8.596;2023-01-08T16:20:05;9.57;;;5.30;;
21661;SDS011;10992;48.170;8.596;2023-01-08T16:22:33;30.50;;;13.10;;